Friday, December 14, 2018, 6:55 PM EST
Back to Local

KLCI, Laconia, Laconia Municipal Airport

Location: Laconia, NH, United States Lat: 43.567
Local Time: 6:55 PM EST (23:55 GMT) Lon: -71.417
Time Zone: US/Eastern Elev: 544 ft

Show me the last for .
Show Decoded

2018-12-14 17:56 METAR KLCI 142256Z AUTO 00000KT 10SM OVC028 00/M03 A3032 RMK AO2 SLP288
                 T00001028 FZRANO $ =
2018-12-14 17:42 METAR KLCI 142242Z AUTO 00000KT 10SM OVC028 00/M03 A3033 RMK AO2 FZRANO $ =
2018-12-14 16:56 METAR KLCI 142156Z AUTO 02003KT 10SM OVC032 01/M03 A3034 RMK AO2 SLP293
                 T00061033 FZRANO $ =
2018-12-14 15:56 METAR KLCI 142056Z AUTO 00000KT 10SM OVC040 01/M03 A3036 RMK AO2 SLP301
                 T00061033 55010 FZRANO $ =
2018-12-14 14:56 METAR KLCI 141956Z AUTO 07003KT 10SM OVC046 01/M03 A3036 RMK AO2 SLP301
                 T00061033 FZRANO $ =
2018-12-14 13:56 METAR KLCI 141856Z AUTO 07003KT 10SM OVC042 01/M03 A3037 RMK AO2 SLP303
                 T00111033 FZRANO $ =
2018-12-14 12:56 METAR KLCI 141756Z AUTO 00000KT 10SM OVC042 02/M04 A3039 RMK AO2 SLP311
                 T00171039 10017 21028 58034 FZRANO $ =
2018-12-14 11:56 METAR KLCI 141656Z AUTO 26005KT 10SM FEW016 OVC040 00/M05 A3043 RMK AO2 SLP325
                 T00001050 FZRANO $ =
2018-12-14 10:42 METAR KLCI 141542Z AUTO 00000KT 10SM FEW017 OVC042 00/M04 A3048 RMK AO2 FZRANO $
                 =
2018-12-14 09:56 METAR KLCI 141456Z AUTO 00000KT 10SM OVC017 M02/M06 A3049 RMK AO2 SLP347
                 T10171056 50003 FZRANO $ =
2018-12-14 09:31 METAR KLCI 141431Z AUTO 25003KT 10SM BKN017 OVC037 M02/M06 A3051 RMK AO2 FZRANO
                 $ =
2018-12-14 08:56 METAR KLCI 141356Z AUTO 29003KT 10SM SCT017 OVC035 M02/M06 A3050 RMK AO2 SLP346
                 T10221061 FZRANO $ =
2018-12-14 07:56 METAR KLCI 141256Z AUTO 25003KT 10SM OVC015 M03/M07 A3050 RMK AO2 SLP346
                 T10281067 FZRANO $ =
2018-12-14 06:56 METAR KLCI 141156Z AUTO 00000KT 10SM OVC017 M03/M07 A3048 RMK AO2 SLP342
                 T10281067 11028 21039 58003 FZRANO $ =
2018-12-14 05:56 METAR KLCI 141056Z AUTO 00000KT 10SM OVC017 M03/M07 A3049 RMK AO2 SLP343
                 T10331072 FZRANO $ =
2018-12-14 04:56 METAR KLCI 140956Z AUTO 26004KT 10SM OVC019 M03/M07 A3050 RMK AO2 SLP347
                 T10331072 FZRANO $ =
2018-12-14 03:56 METAR KLCI 140856Z AUTO 29003KT 10SM OVC019 M03/M08 A3049 RMK AO2 SLP345
                 T10331078 58016 FZRANO $ =
2018-12-14 02:56 METAR KLCI 140756Z AUTO 28004KT 10SM OVC019 M04/M08 A3052 RMK AO2 SLP355
                 T10391078 FZRANO $ =
2018-12-14 01:56 METAR KLCI 140656Z AUTO 30003KT 10SM OVC019 M04/M08 A3053 RMK AO2 SLP358
                 T10391078 FZRANO $ =
2018-12-14 00:56 METAR KLCI 140556Z AUTO 00000KT 10SM OVC023 M04/M08 A3054 RMK AO2 SLP363 60000
                 T10391078 11039 21044 55003 FZRANO $ =
2018-12-13 23:56 METAR KLCI 140456Z AUTO 00000KT 10SM OVC023 M04/M08 A3054 RMK AO2 SLP363
                 T10391083 FZRANO $ =
2018-12-13 21:56 METAR KLCI 140256Z AUTO 00000KT 10SM OVC027 M04/M09 A3055 RMK AO2 SLP367 60000
                 T10391089 55001 FZRANO $ =
2018-12-13 21:30 METAR KLCI 140230Z AUTO 00000KT 10SM OVC029 M04/M09 A3055 RMK AO2 FZRANO $ =
2018-12-13 20:56 METAR KLCI 140156Z AUTO 32003KT 10SM OVC031 M04/M09 A3054 RMK AO2 SNB0058E20
                 SLP363 P0000 T10441089 FZRANO $ =
2018-12-13 20:13 METAR KLCI 140113Z AUTO 00000KT 9SM -SN FEW026 OVC033 M04/M10 A3053 RMK AO2
                 SNB0058 P0000 FZRANO $ =
2018-12-13 19:56 METAR KLCI 140056Z AUTO 00000KT 10SM BKN026 OVC033 M04/M10 A3055 RMK AO2 SLP363
                 T10441100 FZRANO $ =
2018-12-13 19:26 METAR KLCI 140026Z AUTO 00000KT 10SM BKN028 OVC035 M04/M10 A3055 RMK AO2 FZRANO
                 $ =
2018-12-13 18:56 METAR KLCI 132356Z AUTO 00000KT 10SM OVC037 M04/M11 A3056 RMK AO2 SLP367
                 T10441106 11028 21050 52015 FZRANO $ =

Support USWX by starting your Amazon purchase here.